Pulpca — PHMT — position and weather

sailwx.info

Track history (hours):
 
Tides and Currents Weather Stations Pressure Air Temp Water Temp Dewpoint Dewpoint Depression Visibility Wind Speed Wind Dir Waves Ship Positions

Pulpca

Last reported at 2014-Aug-02 06:31 UTC. Time now 2014-Aug-02 06:41 UTC.
Position N 57°26' E 019°13'.

Length 205 m; draft 6.7 m.

Type: Ship (hazmat cat A). MMSI: 245097000.

Date/timePositionNaut miles runAvg speedWind from/ knotsBaromVisibWave heightAir tempDewpointWater temp
2014-Aug-02 06:31N 57°26' E 019°13'18318.1
2014-Aug-01 20:25N 59°45' E 023°03'5 1.4
2014-Aug-01 16:32N 59°49' E 022°56'8 8.5
2014-Aug-01 15:33N 59°42' E 023°06'1110.6
2014-Aug-01 14:33N 59°36' E 023°23'11 2.2
2014-Aug-01 09:25N 59°29' E 023°41'2123.2
2014-Aug-01 08:31N 59°42' E 023°09'10 1.9
2014-Aug-01 03:28N 59°49' E 022°57'4 4.1
2014-Aug-01 02:28N 59°46' E 023°01'33718.5
2014-Jul-31 08:14N 55°42' E 015°43'1319.5
2014-Jul-31 07:33N 55°36' E 015°23'2019.5
2014-Jul-31 06:33N 55°27' E 014°52'1918.8
2014-Jul-31 05:33N 55°15' E 014°27'1918.7
2014-Jul-31 04:33N 55°01' E 014°04'1919.4
2014-Jul-31 03:33N 54°55' E 013°33'1919.0
2014-Jul-31 02:33N 54°49' E 013°02'1919.0
2014-Jul-31 01:33N 54°41' E 012°32'1818.3
2014-Jul-31 00:33N 54°27' E 012°12'1818.4
2014-Jul-30 23:33N 54°19' E 011°43'1919.0
2014-Jul-30 22:34N 54°09' E 011°15'7 0.3
2014-Jul-30 02:33N 54°05' E 011°06'1717.4
2014-Jul-30 01:33N 54°15' E 011°30'1818.1
2014-Jul-30 00:33N 54°25' E 011°56'1515.1
2014-Jul-29 23:33N 54°35' E 012°15'1919.1
2014-Jul-29 22:33N 54°46' E 012°42'1818.5
2014-Jul-29 21:33N 54°54' E 013°11'1818.4
2014-Jul-29 20:33N 54°60' E 013°42'1818.0
2014-Jul-29 19:33N 55°08' E 014°09'1919.0
2014-Jul-29 18:34N 55°23' E 014°31'1818.1
2014-Jul-29 17:33N 55°34' E 014°56'1818.4
2014-Jul-29 16:33N 55°43' E 015°24'1818.5
2014-Jul-29 15:34N 55°52' E 015°53'1918.6
2014-Jul-29 14:33N 56°02' E 016°21'1818.4
2014-Jul-29 13:33N 56°11' E 016°50'1818.4
2014-Jul-29 12:33N 56°23' E 017°16'1918.5
2014-Jul-29 11:32N 56°34' E 017°44'1918.7
2014-Jul-29 10:30N 56°46' E 018°11'1718.3
2014-Jul-29 09:33N 56°58' E 018°33'1818.5
2014-Jul-29 08:33N 57°13' E 018°53'1818.2
2014-Jul-29 07:33N 57°28' E 019°12'12017.1
2014-Jul-29 00:33N 59°04' E 021°29'1717.3
2014-Jul-28 23:33N 59°16' E 021°54'2713.2
2014-Jul-28 21:33N 59°31' E 022°36'1312.6
2014-Jul-28 20:32N 59°39' E 022°56'8 8.3
2014-Jul-28 19:33N 59°47' E 022°59'2 2.3
2014-Jul-28 18:33N 59°49' E 022°57'0 0.0
2014-Jul-28 17:33N 59°49' E 022°57'0 0.0
2014-Jul-28 10:19N 59°49' E 022°57'0 0.0
2014-Jul-28 08:25N 59°49' E 022°57'0 0.0
2014-Jul-28 07:33N 59°49' E 022°57'0 0.0
2014-Jul-28 06:33N 59°49' E 022°57'0 0.0
2014-Jul-28 05:30N 59°49' E 022°57'0 0.0
2014-Jul-28 04:33N 59°49' E 022°57'0 0.0
2014-Jul-28 03:32N 59°49' E 022°57'0 0.0
2014-Jul-28 02:30N 59°49' E 022°57'0 0.0
2014-Jul-28 01:33N 59°49' E 022°57'0 0.0
2014-Jul-28 00:33N 59°49' E 022°57'0 0.0
2014-Jul-27 23:33N 59°49' E 022°57'0 0.0
2014-Jul-27 22:33N 59°49' E 022°57'0 0.0
2014-Jul-27 21:32N 59°49' E 022°57'0 0.0
2014-Jul-27 20:23N 59°49' E 022°57'0 0.0
2014-Jul-27 19:33N 59°49' E 022°57'0 0.0
2014-Jul-27 17:30N 59°49' E 022°57'3 1.6
2014-Jul-27 15:31N 59°47' E 023°00'1817.9
2014-Jul-27 14:31N 59°30' E 022°47'2920.8
2014-Jul-27 13:06N 59°11' E 022°02'1121.0
2014-Jul-27 12:34N 59°03' E 021°46'2121.1
2014-Jul-27 11:33N 58°47' E 021°19'2521.1
2014-Jul-27 10:22N 58°27' E 020°51'20920.8
2014-Jul-27 00:21N 55°57' E 016°23'1721.3
2014-Jul-26 23:33N 55°48' E 015°57'2121.3
2014-Jul-26 22:34N 55°38' E 015°24'2121.4
2014-Jul-26 21:34N 55°28' E 014°51'2121.4
2014-Jul-26 20:33N 55°13' E 014°24'2120.8
2014-Jul-26 19:33N 54°59' E 013°57'2221.8
2014-Jul-26 18:33N 54°52' E 013°21'2221.7
2014-Jul-26 17:33N 54°45' E 012°45'2020.0
2014-Jul-26 16:33N 54°33' E 012°17'1919.5
2014-Jul-26 15:34N 54°20' E 011°53'2121.0
2014-Jul-26 14:34N 54°11' E 011°20'19 1.5
2014-Jul-26 02:20N 53°59' E 010°55'1215.9
2014-Jul-26 01:34N 54°07' E 011°11'1817.7
2014-Jul-26 00:34N 54°17' E 011°36'1717.3
2014-Jul-25 23:34N 54°26' E 012°02'1616.0
2014-Jul-25 22:34N 54°38' E 012°20'1817.8
2014-Jul-25 21:34N 54°47' E 012°46'1817.5
2014-Jul-25 20:33N 54°54' E 013°14'1817.6
2014-Jul-25 19:34N 55°00' E 013°43'2017.3
2014-Jul-25 18:26N 55°10' E 014°12'1617.7
2014-Jul-25 17:33N 55°22' E 014°30'1717.5
2014-Jul-25 16:34N 55°32' E 014°55'1818.1
2014-Jul-25 15:34N 55°41' E 015°23'1818.3
2014-Jul-25 14:34N 55°50' E 015°51'1817.9
2014-Jul-25 13:34N 55°59' E 016°18'1818.0
2014-Jul-25 12:34N 56°09' E 016°45'1818.0
2014-Jul-25 11:33N 56°21' E 017°10'1818.0
2014-Jul-25 10:34N 56°31' E 017°36'1817.6
2014-Jul-25 09:34N 56°42' E 018°02'1717.2
2014-Jul-25 08:33N 56°52' E 018°27'1717.2
2014-Jul-25 07:34N 57°06' E 018°46'1817.7
2014-Jul-25 06:34N 57°21' E 019°04'1817.7
2014-Jul-25 05:33N 57°35' E 019°23'1817.7
2014-Jul-25 04:34N 57°49' E 019°44'2017.7
2014-Jul-25 03:26N 58°05' E 020°06'1617.6
2014-Jul-25 02:32N 58°18' E 020°24'1717.7
2014-Jul-25 01:33N 58°32' E 020°44'1817.7
2014-Jul-25 00:34N 58°46' E 021°03'1818.0
2014-Jul-24 23:33N 59°00' E 021°25'1817.7
2014-Jul-24 22:34N 59°13' E 021°48'1918.0
2014-Jul-24 21:31N 59°24' E 022°17'1717.9
2014-Jul-24 20:33N 59°34' E 022°46'1414.5
2014-Jul-24 19:33N 59°46' E 023°00'3 0.2
2014-Jul-24 04:04N 59°49' E 022°57'1 1.2
2014-Jul-24 03:33N 59°49' E 022°56'1313.5
2014-Jul-24 02:33N 59°36' E 022°56'2318.5
2014-Jul-24 01:18N 59°20' E 022°22'1418.4
2014-Jul-24 00:33N 59°11' E 022°01'1818.6
2014-Jul-23 23:33N 58°58' E 021°36'1818.5
2014-Jul-23 22:33N 58°44' E 021°14'2718.8
2014-Jul-23 21:06N 58°22' E 020°41'1018.8
2014-Jul-23 20:33N 58°14' E 020°30'2318.8
2014-Jul-23 19:21N 57°56' E 020°04'1518.8
2014-Jul-23 18:33N 57°44' E 019°47'1918.9
2014-Jul-23 17:33N 57°29' E 019°25'1918.7
2014-Jul-23 16:33N 57°14' E 019°04'1818.3
2014-Jul-23 15:33N 56°60' E 018°44'1818.0
2014-Jul-23 14:33N 56°46' E 018°22'1918.6
2014-Jul-23 13:33N 56°35' E 017°56'1919.0
2014-Jul-23 12:33N 56°22' E 017°30'1918.8
2014-Jul-23 11:33N 56°10' E 017°04'1918.7
2014-Jul-23 10:33N 55°59' E 016°37'2018.7
2014-Jul-23 09:30N 55°49' E 016°06'1718.5
2014-Jul-23 08:33N 55°41' E 015°39'1818.3
2014-Jul-23 07:33N 55°32' E 015°11'1818.4
2014-Jul-23 06:33N 55°24' E 014°42'  
Track history (hours):
 
Tides and Currents Weather Stations Pressure Air Temp Water Temp Dewpoint Dewpoint Depression Visibility Wind Speed Wind Dir Waves Ship Positions

Pulpca

Last reported at 2014-Aug-02 06:31 UTC. Time now 2014-Aug-02 06:41 UTC.
Position N 57°26' E 019°13'.

Length 205 m; draft 6.7 m.

Type: Ship (hazmat cat A). MMSI: 245097000.

Date/timePositionNaut miles runAvg speedWind from/ knotsBaromVisibWave heightAir tempDewpointWater temp
2014-Aug-02 06:31N 57°26' E 019°13'18318.1
2014-Aug-01 20:25N 59°45' E 023°03'5 1.4
2014-Aug-01 16:32N 59°49' E 022°56'8 8.5
2014-Aug-01 15:33N 59°42' E 023°06'1110.6
2014-Aug-01 14:33N 59°36' E 023°23'11 2.2
2014-Aug-01 09:25N 59°29' E 023°41'2123.2
2014-Aug-01 08:31N 59°42' E 023°09'10 1.9
2014-Aug-01 03:28N 59°49' E 022°57'4 4.1
2014-Aug-01 02:28N 59°46' E 023°01'33718.5
2014-Jul-31 08:14N 55°42' E 015°43'1319.5
2014-Jul-31 07:33N 55°36' E 015°23'2019.5
2014-Jul-31 06:33N 55°27' E 014°52'1918.8
2014-Jul-31 05:33N 55°15' E 014°27'1918.7
2014-Jul-31 04:33N 55°01' E 014°04'1919.4
2014-Jul-31 03:33N 54°55' E 013°33'1919.0
2014-Jul-31 02:33N 54°49' E 013°02'1919.0
2014-Jul-31 01:33N 54°41' E 012°32'1818.3
2014-Jul-31 00:33N 54°27' E 012°12'1818.4
2014-Jul-30 23:33N 54°19' E 011°43'1919.0
2014-Jul-30 22:34N 54°09' E 011°15'7 0.3
2014-Jul-30 02:33N 54°05' E 011°06'1717.4
2014-Jul-30 01:33N 54°15' E 011°30'1818.1
2014-Jul-30 00:33N 54°25' E 011°56'1515.1
2014-Jul-29 23:33N 54°35' E 012°15'1919.1
2014-Jul-29 22:33N 54°46' E 012°42'1818.5
2014-Jul-29 21:33N 54°54' E 013°11'1818.4
2014-Jul-29 20:33N 54°60' E 013°42'1818.0
2014-Jul-29 19:33N 55°08' E 014°09'1919.0
2014-Jul-29 18:34N 55°23' E 014°31'1818.1
2014-Jul-29 17:33N 55°34' E 014°56'1818.4
2014-Jul-29 16:33N 55°43' E 015°24'1818.5
2014-Jul-29 15:34N 55°52' E 015°53'1918.6
2014-Jul-29 14:33N 56°02' E 016°21'1818.4
2014-Jul-29 13:33N 56°11' E 016°50'1818.4
2014-Jul-29 12:33N 56°23' E 017°16'1918.5
2014-Jul-29 11:32N 56°34' E 017°44'1918.7
2014-Jul-29 10:30N 56°46' E 018°11'1718.3
2014-Jul-29 09:33N 56°58' E 018°33'1818.5
2014-Jul-29 08:33N 57°13' E 018°53'1818.2
2014-Jul-29 07:33N 57°28' E 019°12'12017.1
2014-Jul-29 00:33N 59°04' E 021°29'1717.3
2014-Jul-28 23:33N 59°16' E 021°54'2713.2
2014-Jul-28 21:33N 59°31' E 022°36'1312.6
2014-Jul-28 20:32N 59°39' E 022°56'8 8.3
2014-Jul-28 19:33N 59°47' E 022°59'2 2.3
2014-Jul-28 18:33N 59°49' E 022°57'0 0.0
2014-Jul-28 17:33N 59°49' E 022°57'0 0.0
2014-Jul-28 10:19N 59°49' E 022°57'0 0.0
2014-Jul-28 08:25N 59°49' E 022°57'0 0.0
2014-Jul-28 07:33N 59°49' E 022°57'0 0.0
2014-Jul-28 06:33N 59°49' E 022°57'0 0.0
2014-Jul-28 05:30N 59°49' E 022°57'0 0.0
2014-Jul-28 04:33N 59°49' E 022°57'0 0.0
2014-Jul-28 03:32N 59°49' E 022°57'0 0.0
2014-Jul-28 02:30N 59°49' E 022°57'0 0.0
2014-Jul-28 01:33N 59°49' E 022°57'0 0.0
2014-Jul-28 00:33N 59°49' E 022°57'0 0.0
2014-Jul-27 23:33N 59°49' E 022°57'0 0.0
2014-Jul-27 22:33N 59°49' E 022°57'0 0.0
2014-Jul-27 21:32N 59°49' E 022°57'0 0.0
2014-Jul-27 20:23N 59°49' E 022°57'0 0.0
2014-Jul-27 19:33N 59°49' E 022°57'0 0.0
2014-Jul-27 17:30N 59°49' E 022°57'3 1.6
2014-Jul-27 15:31N 59°47' E 023°00'1817.9
2014-Jul-27 14:31N 59°30' E 022°47'2920.8
2014-Jul-27 13:06N 59°11' E 022°02'1121.0
2014-Jul-27 12:34N 59°03' E 021°46'2121.1
2014-Jul-27 11:33N 58°47' E 021°19'2521.1
2014-Jul-27 10:22N 58°27' E 020°51'20920.8
2014-Jul-27 00:21N 55°57' E 016°23'1721.3
2014-Jul-26 23:33N 55°48' E 015°57'2121.3
2014-Jul-26 22:34N 55°38' E 015°24'2121.4
2014-Jul-26 21:34N 55°28' E 014°51'2121.4
2014-Jul-26 20:33N 55°13' E 014°24'2120.8
2014-Jul-26 19:33N 54°59' E 013°57'2221.8
2014-Jul-26 18:33N 54°52' E 013°21'2221.7
2014-Jul-26 17:33N 54°45' E 012°45'2020.0
2014-Jul-26 16:33N 54°33' E 012°17'1919.5
2014-Jul-26 15:34N 54°20' E 011°53'2121.0
2014-Jul-26 14:34N 54°11' E 011°20'19 1.5
2014-Jul-26 02:20N 53°59' E 010°55'1215.9
2014-Jul-26 01:34N 54°07' E 011°11'1817.7
2014-Jul-26 00:34N 54°17' E 011°36'1717.3
2014-Jul-25 23:34N 54°26' E 012°02'1616.0
2014-Jul-25 22:34N 54°38' E 012°20'1817.8
2014-Jul-25 21:34N 54°47' E 012°46'1817.5
2014-Jul-25 20:33N 54°54' E 013°14'1817.6
2014-Jul-25 19:34N 55°00' E 013°43'2017.3
2014-Jul-25 18:26N 55°10' E 014°12'1617.7
2014-Jul-25 17:33N 55°22' E 014°30'1717.5
2014-Jul-25 16:34N 55°32' E 014°55'1818.1
2014-Jul-25 15:34N 55°41' E 015°23'1818.3
2014-Jul-25 14:34N 55°50' E 015°51'1817.9
2014-Jul-25 13:34N 55°59' E 016°18'1818.0
2014-Jul-25 12:34N 56°09' E 016°45'1818.0
2014-Jul-25 11:33N 56°21' E 017°10'1818.0
2014-Jul-25 10:34N 56°31' E 017°36'1817.6
2014-Jul-25 09:34N 56°42' E 018°02'1717.2
2014-Jul-25 08:33N 56°52' E 018°27'1717.2
2014-Jul-25 07:34N 57°06' E 018°46'1817.7
2014-Jul-25 06:34N 57°21' E 019°04'1817.7
2014-Jul-25 05:33N 57°35' E 019°23'1817.7
2014-Jul-25 04:34N 57°49' E 019°44'2017.7
2014-Jul-25 03:26N 58°05' E 020°06'1617.6
2014-Jul-25 02:32N 58°18' E 020°24'1717.7
2014-Jul-25 01:33N 58°32' E 020°44'1817.7
2014-Jul-25 00:34N 58°46' E 021°03'1818.0
2014-Jul-24 23:33N 59°00' E 021°25'1817.7
2014-Jul-24 22:34N 59°13' E 021°48'1918.0
2014-Jul-24 21:31N 59°24' E 022°17'1717.9
2014-Jul-24 20:33N 59°34' E 022°46'1414.5
2014-Jul-24 19:33N 59°46' E 023°00'3 0.2
2014-Jul-24 04:04N 59°49' E 022°57'1 1.2
2014-Jul-24 03:33N 59°49' E 022°56'1313.5
2014-Jul-24 02:33N 59°36' E 022°56'2318.5
2014-Jul-24 01:18N 59°20' E 022°22'1418.4
2014-Jul-24 00:33N 59°11' E 022°01'1818.6
2014-Jul-23 23:33N 58°58' E 021°36'1818.5
2014-Jul-23 22:33N 58°44' E 021°14'2718.8
2014-Jul-23 21:06N 58°22' E 020°41'1018.8
2014-Jul-23 20:33N 58°14' E 020°30'2318.8
2014-Jul-23 19:21N 57°56' E 020°04'1518.8
2014-Jul-23 18:33N 57°44' E 019°47'1918.9
2014-Jul-23 17:33N 57°29' E 019°25'1918.7
2014-Jul-23 16:33N 57°14' E 019°04'1818.3
2014-Jul-23 15:33N 56°60' E 018°44'1818.0
2014-Jul-23 14:33N 56°46' E 018°22'1918.6
2014-Jul-23 13:33N 56°35' E 017°56'1919.0
2014-Jul-23 12:33N 56°22' E 017°30'1918.8
2014-Jul-23 11:33N 56°10' E 017°04'1918.7
2014-Jul-23 10:33N 55°59' E 016°37'2018.7
2014-Jul-23 09:30N 55°49' E 016°06'1718.5
2014-Jul-23 08:33N 55°41' E 015°39'1818.3
2014-Jul-23 07:33N 55°32' E 015°11'1818.4
2014-Jul-23 06:33N 55°24' E 014°42'  

Dump ship's entire track history